sensor_id;sensor_type;location;lat;lon;timestamp;P1;durP1;ratioP1;P2;durP2;ratioP2
66546;SDS011;53400;50.364;14.874;2024-02-26T00:00:13;53.15;;;25.73;;
66546;SDS011;53400;50.364;14.874;2024-02-26T00:03:00;50.45;;;23.80;;
66546;SDS011;53400;50.364;14.874;2024-02-26T00:05:27;40.42;;;23.23;;
66546;SDS011;53400;50.364;14.874;2024-02-26T00:07:53;45.53;;;23.85;;
66546;SDS011;53400;50.364;14.874;2024-02-26T00:10:21;46.47;;;23.17;;
66546;SDS011;53400;50.364;14.874;2024-02-26T00:12:47;52.67;;;25.23;;
66546;SDS011;53400;50.364;14.874;2024-02-26T00:15:15;44.38;;;22.85;;
66546;SDS011;53400;50.364;14.874;2024-02-26T00:17:40;48.88;;;23.75;;
66546;SDS011;53400;50.364;14.874;2024-02-26T00:20:06;126.63;;;45.13;;
66546;SDS011;53400;50.364;14.874;2024-02-26T00:22:36;69.25;;;32.30;;
66546;SDS011;53400;50.364;14.874;2024-02-26T00:25:03;73.97;;;31.35;;
66546;SDS011;53400;50.364;14.874;2024-02-26T00:27:30;48.50;;;23.63;;
66546;SDS011;53400;50.364;14.874;2024-02-26T00:29:57;77.53;;;32.05;;
66546;SDS011;53400;50.364;14.874;2024-02-26T00:32:26;169.18;;;57.53;;
66546;SDS011;53400;50.364;14.874;2024-02-26T00:34:52;87.68;;;38.35;;
66546;SDS011;53400;50.364;14.874;2024-02-26T00:37:18;54.28;;;26.23;;
66546;SDS011;53400;50.364;14.874;2024-02-26T00:39:44;70.97;;;33.10;;
66546;SDS011;53400;50.364;14.874;2024-02-26T00:42:11;41.35;;;22.83;;
66546;SDS011;53400;50.364;14.874;2024-02-26T00:44:37;63.08;;;30.48;;
66546;SDS011;53400;50.364;14.874;2024-02-26T00:47:03;46.28;;;25.00;;
66546;SDS011;53400;50.364;14.874;2024-02-26T00:49:30;64.28;;;28.95;;
66546;SDS011;53400;50.364;14.874;2024-02-26T00:51:56;55.83;;;28.00;;
66546;SDS011;53400;50.364;14.874;2024-02-26T00:54:22;46.83;;;25.67;;
66546;SDS011;53400;50.364;14.874;2024-02-26T00:56:48;48.03;;;25.35;;
66546;SDS011;53400;50.364;14.874;2024-02-26T00:59:14;48.17;;;28.88;;
66546;SDS011;53400;50.364;14.874;2024-02-26T01:01:40;40.92;;;23.58;;
66546;SDS011;53400;50.364;14.874;2024-02-26T01:04:06;42.90;;;23.98;;
66546;SDS011;53400;50.364;14.874;2024-02-26T01:06:33;46.30;;;25.30;;
66546;SDS011;53400;50.364;14.874;2024-02-26T01:08:59;44.17;;;25.05;;
66546;SDS011;53400;50.364;14.874;2024-02-26T01:11:25;41.22;;;22.73;;
66546;SDS011;53400;50.364;14.874;2024-02-26T01:13:51;44.60;;;22.60;;
66546;SDS011;53400;50.364;14.874;2024-02-26T01:16:21;40.15;;;22.67;;
66546;SDS011;53400;50.364;14.874;2024-02-26T01:18:47;41.17;;;23.63;;
66546;SDS011;53400;50.364;14.874;2024-02-26T01:21:13;48.88;;;24.15;;
66546;SDS011;53400;50.364;14.874;2024-02-26T01:23:41;49.50;;;24.48;;
66546;SDS011;53400;50.364;14.874;2024-02-26T01:26:07;42.90;;;22.17;;
66546;SDS011;53400;50.364;14.874;2024-02-26T01:28:33;38.53;;;21.83;;
66546;SDS011;53400;50.364;14.874;2024-02-26T01:30:59;37.33;;;21.00;;
66546;SDS011;53400;50.364;14.874;2024-02-26T01:33:25;37.70;;;19.70;;
66546;SDS011;53400;50.364;14.874;2024-02-26T01:35:52;34.15;;;18.45;;
66546;SDS011;53400;50.364;14.874;2024-02-26T01:38:18;45.20;;;21.42;;
66546;SDS011;53400;50.364;14.874;2024-02-26T01:40:46;48.70;;;24.45;;
66546;SDS011;53400;50.364;14.874;2024-02-26T01:43:11;36.10;;;19.48;;
66546;SDS011;53400;50.364;14.874;2024-02-26T01:45:37;36.38;;;20.13;;
66546;SDS011;53400;50.364;14.874;2024-02-26T01:48:03;37.15;;;19.70;;
66546;SDS011;53400;50.364;14.874;2024-02-26T01:50:30;34.63;;;20.25;;
66546;SDS011;53400;50.364;14.874;2024-02-26T01:52:56;49.15;;;31.58;;
66546;SDS011;53400;50.364;14.874;2024-02-26T01:55:23;47.30;;;25.52;;
66546;SDS011;53400;50.364;14.874;2024-02-26T01:57:53;51.05;;;26.20;;
66546;SDS011;53400;50.364;14.874;2024-02-26T02:00:19;48.60;;;24.92;;
66546;SDS011;53400;50.364;14.874;2024-02-26T02:02:46;66.25;;;31.83;;
66546;SDS011;53400;50.364;14.874;2024-02-26T02:05:13;57.10;;;29.75;;
66546;SDS011;53400;50.364;14.874;2024-02-26T02:07:41;54.85;;;26.92;;
66546;SDS011;53400;50.364;14.874;2024-02-26T02:10:07;44.35;;;23.42;;
66546;SDS011;53400;50.364;14.874;2024-02-26T02:12:33;45.95;;;25.55;;
66546;SDS011;53400;50.364;14.874;2024-02-26T02:15:01;44.63;;;23.13;;
66546;SDS011;53400;50.364;14.874;2024-02-26T02:17:28;42.38;;;23.40;;
66546;SDS011;53400;50.364;14.874;2024-02-26T02:19:53;45.28;;;22.67;;
66546;SDS011;53400;50.364;14.874;2024-02-26T02:22:21;39.40;;;22.08;;
66546;SDS011;53400;50.364;14.874;2024-02-26T02:24:48;39.85;;;21.05;;
66546;SDS011;53400;50.364;14.874;2024-02-26T02:27:14;44.10;;;22.65;;
66546;SDS011;53400;50.364;14.874;2024-02-26T02:29:40;46.25;;;23.67;;
66546;SDS011;53400;50.364;14.874;2024-02-26T02:32:06;42.70;;;22.45;;
66546;SDS011;53400;50.364;14.874;2024-02-26T02:34:32;39.63;;;22.02;;
66546;SDS011;53400;50.364;14.874;2024-02-26T02:36:59;38.85;;;22.38;;
66546;SDS011;53400;50.364;14.874;2024-02-26T02:39:26;40.35;;;23.15;;
66546;SDS011;53400;50.364;14.874;2024-02-26T02:41:52;37.70;;;20.50;;
66546;SDS011;53400;50.364;14.874;2024-02-26T02:44:18;32.55;;;18.25;;
66546;SDS011;53400;50.364;14.874;2024-02-26T02:46:44;34.53;;;18.77;;
66546;SDS011;53400;50.364;14.874;2024-02-26T02:49:10;38.38;;;20.33;;
66546;SDS011;53400;50.364;14.874;2024-02-26T02:51:36;43.33;;;22.23;;
66546;SDS011;53400;50.364;14.874;2024-02-26T02:54:02;37.60;;;20.13;;
66546;SDS011;53400;50.364;14.874;2024-02-26T02:56:30;42.72;;;20.13;;
66546;SDS011;53400;50.364;14.874;2024-02-26T02:58:55;34.08;;;17.75;;
66546;SDS011;53400;50.364;14.874;2024-02-26T03:01:21;56.28;;;30.05;;
66546;SDS011;53400;50.364;14.874;2024-02-26T03:03:47;53.63;;;26.33;;
66546;SDS011;53400;50.364;14.874;2024-02-26T03:06:13;44.08;;;22.50;;
66546;SDS011;53400;50.364;14.874;2024-02-26T03:08:39;45.25;;;23.45;;
66546;SDS011;53400;50.364;14.874;2024-02-26T03:11:07;35.80;;;19.95;;
66546;SDS011;53400;50.364;14.874;2024-02-26T03:13:34;34.78;;;18.55;;
66546;SDS011;53400;50.364;14.874;2024-02-26T03:16:03;43.08;;;21.88;;
66546;SDS011;53400;50.364;14.874;2024-02-26T03:18:30;39.50;;;18.92;;
66546;SDS011;53400;50.364;14.874;2024-02-26T03:20:55;31.65;;;16.65;;
66546;SDS011;53400;50.364;14.874;2024-02-26T03:23:21;31.52;;;17.85;;
66546;SDS011;53400;50.364;14.874;2024-02-26T03:25:47;32.55;;;17.13;;
66546;SDS011;53400;50.364;14.874;2024-02-26T03:28:13;32.47;;;17.45;;
66546;SDS011;53400;50.364;14.874;2024-02-26T03:30:40;31.90;;;17.48;;
66546;SDS011;53400;50.364;14.874;2024-02-26T03:33:06;31.98;;;16.38;;
66546;SDS011;53400;50.364;14.874;2024-02-26T03:35:32;34.00;;;16.98;;
66546;SDS011;53400;50.364;14.874;2024-02-26T03:37:58;32.00;;;15.52;;
66546;SDS011;53400;50.364;14.874;2024-02-26T03:40:24;23.98;;;14.70;;
66546;SDS011;53400;50.364;14.874;2024-02-26T03:42:50;25.65;;;12.05;;
66546;SDS011;53400;50.364;14.874;2024-02-26T03:45:18;21.20;;;10.35;;
66546;SDS011;53400;50.364;14.874;2024-02-26T03:47:45;14.98;;;9.38;;
66546;SDS011;53400;50.364;14.874;2024-02-26T03:50:11;21.25;;;9.77;;
66546;SDS011;53400;50.364;14.874;2024-02-26T03:52:37;17.73;;;9.70;;
66546;SDS011;53400;50.364;14.874;2024-02-26T03:55:03;17.63;;;9.52;;
66546;SDS011;53400;50.364;14.874;2024-02-26T03:57:29;20.30;;;10.23;;
66546;SDS011;53400;50.364;14.874;2024-02-26T03:59:55;28.33;;;17.50;;
66546;SDS011;53400;50.364;14.874;2024-02-26T04:02:21;21.52;;;12.10;;
66546;SDS011;53400;50.364;14.874;2024-02-26T04:04:50;22.35;;;11.63;;
66546;SDS011;53400;50.364;14.874;2024-02-26T04:07:15;33.30;;;17.60;;
66546;SDS011;53400;50.364;14.874;2024-02-26T04:09:42;38.47;;;19.60;;
66546;SDS011;53400;50.364;14.874;2024-02-26T04:12:08;32.00;;;16.80;;
66546;SDS011;53400;50.364;14.874;2024-02-26T04:14:35;25.55;;;13.45;;
66546;SDS011;53400;50.364;14.874;2024-02-26T04:17:01;25.83;;;12.73;;
66546;SDS011;53400;50.364;14.874;2024-02-26T04:19:27;24.60;;;12.85;;
66546;SDS011;53400;50.364;14.874;2024-02-26T04:21:55;20.75;;;11.75;;
66546;SDS011;53400;50.364;14.874;2024-02-26T04:24:21;21.23;;;12.18;;
66546;SDS011;53400;50.364;14.874;2024-02-26T04:26:47;43.58;;;28.90;;
66546;SDS011;53400;50.364;14.874;2024-02-26T04:29:15;32.03;;;18.63;;
66546;SDS011;53400;50.364;14.874;2024-02-26T04:31:41;34.17;;;16.92;;
66546;SDS011;53400;50.364;14.874;2024-02-26T04:34:08;38.10;;;18.63;;
66546;SDS011;53400;50.364;14.874;2024-02-26T04:36:34;27.50;;;15.15;;
66546;SDS011;53400;50.364;14.874;2024-02-26T04:39:01;166.60;;;53.65;;
66546;SDS011;53400;50.364;14.874;2024-02-26T04:41:27;35.95;;;18.13;;
66546;SDS011;53400;50.364;14.874;2024-02-26T04:43:53;32.15;;;15.10;;
66546;SDS011;53400;50.364;14.874;2024-02-26T04:46:19;33.65;;;22.70;;
66546;SDS011;53400;50.364;14.874;2024-02-26T04:48:47;27.85;;;16.88;;
66546;SDS011;53400;50.364;14.874;2024-02-26T04:51:13;55.00;;;24.48;;
66546;SDS011;53400;50.364;14.874;2024-02-26T04:53:39;77.50;;;35.83;;
66546;SDS011;53400;50.364;14.874;2024-02-26T04:56:06;40.85;;;19.83;;
66546;SDS011;53400;50.364;14.874;2024-02-26T04:58:32;60.20;;;23.85;;
66546;SDS011;53400;50.364;14.874;2024-02-26T05:00:58;45.65;;;21.25;;
66546;SDS011;53400;50.364;14.874;2024-02-26T05:03:24;33.65;;;19.50;;
66546;SDS011;53400;50.364;14.874;2024-02-26T05:05:50;28.85;;;15.00;;
66546;SDS011;53400;50.364;14.874;2024-02-26T05:08:16;25.42;;;15.82;;
66546;SDS011;53400;50.364;14.874;2024-02-26T05:10:42;30.13;;;18.13;;
66546;SDS011;53400;50.364;14.874;2024-02-26T05:15:35;117.30;;;39.90;;
66546;SDS011;53400;50.364;14.874;2024-02-26T05:18:01;125.18;;;42.22;;
66546;SDS011;53400;50.364;14.874;2024-02-26T05:20:27;72.57;;;27.65;;
66546;SDS011;53400;50.364;14.874;2024-02-26T05:22:54;44.33;;;22.88;;
66546;SDS011;53400;50.364;14.874;2024-02-26T05:25:19;44.78;;;21.95;;
66546;SDS011;53400;50.364;14.874;2024-02-26T05:27:45;46.28;;;21.52;;
66546;SDS011;53400;50.364;14.874;2024-02-26T05:30:13;70.70;;;29.20;;
66546;SDS011;53400;50.364;14.874;2024-02-26T05:32:39;27.08;;;15.45;;
66546;SDS011;53400;50.364;14.874;2024-02-26T05:35:06;45.47;;;21.05;;
66546;SDS011;53400;50.364;14.874;2024-02-26T05:37:32;37.92;;;17.95;;
66546;SDS011;53400;50.364;14.874;2024-02-26T05:39:58;35.35;;;17.00;;
66546;SDS011;53400;50.364;14.874;2024-02-26T05:42:25;59.00;;;26.13;;
66546;SDS011;53400;50.364;14.874;2024-02-26T05:44:51;90.95;;;31.83;;
66546;SDS011;53400;50.364;14.874;2024-02-26T05:47:19;58.33;;;23.25;;
66546;SDS011;53400;50.364;14.874;2024-02-26T05:49:44;46.58;;;24.02;;
66546;SDS011;53400;50.364;14.874;2024-02-26T05:52:10;57.42;;;31.88;;
66546;SDS011;53400;50.364;14.874;2024-02-26T05:54:36;38.85;;;21.38;;
66546;SDS011;53400;50.364;14.874;2024-02-26T05:57:02;51.33;;;23.50;;
66546;SDS011;53400;50.364;14.874;2024-02-26T05:59:28;43.83;;;24.98;;
66546;SDS011;53400;50.364;14.874;2024-02-26T06:01:55;39.17;;;21.48;;
66546;SDS011;53400;50.364;14.874;2024-02-26T06:04:22;36.05;;;21.42;;
66546;SDS011;53400;50.364;14.874;2024-02-26T06:06:48;34.17;;;21.95;;
66546;SDS011;53400;50.364;14.874;2024-02-26T06:09:14;45.72;;;21.15;;
66546;SDS011;53400;50.364;14.874;2024-02-26T06:11:40;53.33;;;24.13;;
66546;SDS011;53400;50.364;14.874;2024-02-26T06:14:06;52.22;;;23.67;;
66546;SDS011;53400;50.364;14.874;2024-02-26T06:16:32;46.47;;;21.17;;
66546;SDS011;53400;50.364;14.874;2024-02-26T06:18:58;38.35;;;21.23;;
66546;SDS011;53400;50.364;14.874;2024-02-26T06:21:27;44.38;;;25.50;;
66546;SDS011;53400;50.364;14.874;2024-02-26T06:23:53;58.33;;;34.22;;
66546;SDS011;53400;50.364;14.874;2024-02-26T06:26:19;45.20;;;26.00;;
66546;SDS011;53400;50.364;14.874;2024-02-26T06:28:44;34.40;;;19.70;;
66546;SDS011;53400;50.364;14.874;2024-02-26T06:31:10;31.33;;;16.80;;
66546;SDS011;53400;50.364;14.874;2024-02-26T06:33:36;29.73;;;17.77;;
66546;SDS011;53400;50.364;14.874;2024-02-26T06:36:02;32.28;;;16.58;;
66546;SDS011;53400;50.364;14.874;2024-02-26T06:38:31;32.15;;;16.73;;
66546;SDS011;53400;50.364;14.874;2024-02-26T06:40:57;28.27;;;16.05;;
66546;SDS011;53400;50.364;14.874;2024-02-26T06:43:23;40.97;;;25.63;;
66546;SDS011;53400;50.364;14.874;2024-02-26T06:45:49;32.35;;;18.95;;
66546;SDS011;53400;50.364;14.874;2024-02-26T06:48:14;49.33;;;25.55;;
66546;SDS011;53400;50.364;14.874;2024-02-26T06:50:40;40.58;;;21.67;;
66546;SDS011;53400;50.364;14.874;2024-02-26T06:53:07;47.03;;;23.33;;
66546;SDS011;53400;50.364;14.874;2024-02-26T06:55:34;56.28;;;26.70;;
66546;SDS011;53400;50.364;14.874;2024-02-26T06:58:00;67.88;;;29.85;;
66546;SDS011;53400;50.364;14.874;2024-02-26T07:00:26;73.65;;;30.42;;
66546;SDS011;53400;50.364;14.874;2024-02-26T07:02:52;41.40;;;19.42;;
66546;SDS011;53400;50.364;14.874;2024-02-26T07:05:18;49.28;;;21.50;;
66546;SDS011;53400;50.364;14.874;2024-02-26T07:07:43;37.30;;;18.27;;
66546;SDS011;53400;50.364;14.874;2024-02-26T07:10:10;32.45;;;15.70;;
66546;SDS011;53400;50.364;14.874;2024-02-26T07:12:38;25.48;;;12.93;;
66546;SDS011;53400;50.364;14.874;2024-02-26T07:15:05;26.77;;;13.82;;
66546;SDS011;53400;50.364;14.874;2024-02-26T07:17:33;28.95;;;13.73;;
66546;SDS011;53400;50.364;14.874;2024-02-26T07:20:02;25.27;;;12.68;;
66546;SDS011;53400;50.364;14.874;2024-02-26T07:22:31;25.48;;;12.88;;
66546;SDS011;53400;50.364;14.874;2024-02-26T07:24:57;24.58;;;12.75;;
66546;SDS011;53400;50.364;14.874;2024-02-26T07:27:23;26.05;;;12.75;;
66546;SDS011;53400;50.364;14.874;2024-02-26T07:29:50;27.17;;;13.02;;
66546;SDS011;53400;50.364;14.874;2024-02-26T07:32:16;23.95;;;12.95;;
66546;SDS011;53400;50.364;14.874;2024-02-26T07:34:42;23.67;;;12.07;;
66546;SDS011;53400;50.364;14.874;2024-02-26T07:37:09;26.23;;;12.73;;
66546;SDS011;53400;50.364;14.874;2024-02-26T07:39:36;26.75;;;12.90;;
66546;SDS011;53400;50.364;14.874;2024-02-26T07:42:02;24.05;;;12.13;;
66546;SDS011;53400;50.364;14.874;2024-02-26T07:44:28;23.63;;;11.82;;
66546;SDS011;53400;50.364;14.874;2024-02-26T07:46:55;26.48;;;12.40;;
66546;SDS011;53400;50.364;14.874;2024-02-26T07:49:22;26.27;;;13.40;;
66546;SDS011;53400;50.364;14.874;2024-02-26T07:51:47;23.33;;;13.20;;
66546;SDS011;53400;50.364;14.874;2024-02-26T07:54:13;24.20;;;11.95;;
66546;SDS011;53400;50.364;14.874;2024-02-26T07:56:41;23.27;;;12.50;;
66546;SDS011;53400;50.364;14.874;2024-02-26T07:59:07;27.20;;;13.52;;
66546;SDS011;53400;50.364;14.874;2024-02-26T08:01:33;28.90;;;13.98;;
66546;SDS011;53400;50.364;14.874;2024-02-26T08:04:01;27.63;;;12.85;;
66546;SDS011;53400;50.364;14.874;2024-02-26T08:06:27;24.25;;;12.43;;
66546;SDS011;53400;50.364;14.874;2024-02-26T08:08:53;26.98;;;13.88;;
66546;SDS011;53400;50.364;14.874;2024-02-26T08:11:19;27.05;;;13.70;;
66546;SDS011;53400;50.364;14.874;2024-02-26T08:13:45;28.80;;;14.20;;
66546;SDS011;53400;50.364;14.874;2024-02-26T08:16:10;28.50;;;15.40;;
66546;SDS011;53400;50.364;14.874;2024-02-26T08:18:38;26.38;;;13.35;;
66546;SDS011;53400;50.364;14.874;2024-02-26T08:21:05;28.85;;;13.15;;
66546;SDS011;53400;50.364;14.874;2024-02-26T08:23:31;25.27;;;13.48;;
66546;SDS011;53400;50.364;14.874;2024-02-26T08:25:57;26.50;;;12.82;;
66546;SDS011;53400;50.364;14.874;2024-02-26T08:28:23;24.05;;;12.07;;
66546;SDS011;53400;50.364;14.874;2024-02-26T08:30:50;25.63;;;12.45;;
66546;SDS011;53400;50.364;14.874;2024-02-26T08:33:16;22.42;;;11.50;;
66546;SDS011;53400;50.364;14.874;2024-02-26T08:35:41;23.17;;;11.73;;
66546;SDS011;53400;50.364;14.874;2024-02-26T08:38:09;27.50;;;13.40;;
66546;SDS011;53400;50.364;14.874;2024-02-26T08:40:35;30.50;;;17.55;;
66546;SDS011;53400;50.364;14.874;2024-02-26T08:43:01;30.67;;;17.20;;
66546;SDS011;53400;50.364;14.874;2024-02-26T08:45:26;28.48;;;15.55;;
66546;SDS011;53400;50.364;14.874;2024-02-26T08:47:52;29.17;;;16.45;;
66546;SDS011;53400;50.364;14.874;2024-02-26T08:50:18;26.77;;;15.32;;
66546;SDS011;53400;50.364;14.874;2024-02-26T08:52:44;45.17;;;22.52;;
66546;SDS011;53400;50.364;14.874;2024-02-26T08:55:15;41.20;;;20.33;;
66546;SDS011;53400;50.364;14.874;2024-02-26T08:57:41;34.15;;;17.02;;
66546;SDS011;53400;50.364;14.874;2024-02-26T09:00:07;37.38;;;19.02;;
66546;SDS011;53400;50.364;14.874;2024-02-26T09:02:34;34.40;;;17.45;;
66546;SDS011;53400;50.364;14.874;2024-02-26T09:05:00;25.60;;;13.85;;
66546;SDS011;53400;50.364;14.874;2024-02-26T09:07:28;26.00;;;13.05;;
66546;SDS011;53400;50.364;14.874;2024-02-26T09:09:54;26.55;;;15.73;;
66546;SDS011;53400;50.364;14.874;2024-02-26T09:12:21;31.98;;;14.82;;
66546;SDS011;53400;50.364;14.874;2024-02-26T09:14:47;30.45;;;17.30;;
66546;SDS011;53400;50.364;14.874;2024-02-26T09:17:13;27.52;;;14.65;;
66546;SDS011;53400;50.364;14.874;2024-02-26T09:19:39;30.92;;;15.35;;
66546;SDS011;53400;50.364;14.874;2024-02-26T09:22:05;37.70;;;16.15;;
66546;SDS011;53400;50.364;14.874;2024-02-26T09:24:32;35.88;;;18.60;;
66546;SDS011;53400;50.364;14.874;2024-02-26T09:26:58;35.40;;;16.70;;
66546;SDS011;53400;50.364;14.874;2024-02-26T09:29:25;29.73;;;16.05;;
66546;SDS011;53400;50.364;14.874;2024-02-26T09:31:52;23.45;;;13.93;;
66546;SDS011;53400;50.364;14.874;2024-02-26T09:34:18;23.40;;;12.20;;
66546;SDS011;53400;50.364;14.874;2024-02-26T09:36:44;24.65;;;12.85;;
66546;SDS011;53400;50.364;14.874;2024-02-26T09:39:10;25.27;;;12.85;;
66546;SDS011;53400;50.364;14.874;2024-02-26T09:41:37;23.73;;;12.85;;
66546;SDS011;53400;50.364;14.874;2024-02-26T09:44:02;23.98;;;13.02;;
66546;SDS011;53400;50.364;14.874;2024-02-26T09:46:31;22.65;;;12.20;;
66546;SDS011;53400;50.364;14.874;2024-02-26T09:48:57;23.05;;;12.90;;
66546;SDS011;53400;50.364;14.874;2024-02-26T09:51:24;25.45;;;13.05;;
66546;SDS011;53400;50.364;14.874;2024-02-26T09:53:51;20.98;;;11.60;;
66546;SDS011;53400;50.364;14.874;2024-02-26T09:56:17;21.15;;;11.55;;
66546;SDS011;53400;50.364;14.874;2024-02-26T09:58:43;21.27;;;11.52;;
66546;SDS011;53400;50.364;14.874;2024-02-26T10:01:16;18.90;;;10.60;;
66546;SDS011;53400;50.364;14.874;2024-02-26T10:03:44;19.50;;;10.80;;
66546;SDS011;53400;50.364;14.874;2024-02-26T10:06:15;18.83;;;10.55;;
66546;SDS011;53400;50.364;14.874;2024-02-26T10:08:41;17.40;;;10.88;;
66546;SDS011;53400;50.364;14.874;2024-02-26T10:11:08;19.95;;;11.05;;
66546;SDS011;53400;50.364;14.874;2024-02-26T10:13:35;19.00;;;9.55;;
66546;SDS011;53400;50.364;14.874;2024-02-26T10:16:02;17.15;;;10.07;;
66546;SDS011;53400;50.364;14.874;2024-02-26T10:21:15;18.25;;;10.73;;
66546;SDS011;53400;50.364;14.874;2024-02-26T10:23:43;16.40;;;9.27;;
66546;SDS011;53400;50.364;14.874;2024-02-26T10:26:10;17.80;;;10.00;;
66546;SDS011;53400;50.364;14.874;2024-02-26T10:28:37;17.17;;;9.30;;
66546;SDS011;53400;50.364;14.874;2024-02-26T10:31:04;16.80;;;9.27;;
66546;SDS011;53400;50.364;14.874;2024-02-26T10:33:30;15.07;;;9.20;;
66546;SDS011;53400;50.364;14.874;2024-02-26T10:35:59;16.08;;;9.93;;
66546;SDS011;53400;50.364;14.874;2024-02-26T10:38:25;19.05;;;9.52;;
66546;SDS011;53400;50.364;14.874;2024-02-26T10:40:51;17.60;;;10.00;;
66546;SDS011;53400;50.364;14.874;2024-02-26T10:43:17;14.55;;;8.77;;
66546;SDS011;53400;50.364;14.874;2024-02-26T10:45:44;16.50;;;9.55;;
66546;SDS011;53400;50.364;14.874;2024-02-26T10:48:10;17.83;;;9.88;;
66546;SDS011;53400;50.364;14.874;2024-02-26T10:50:38;15.00;;;9.07;;
66546;SDS011;53400;50.364;14.874;2024-02-26T10:53:06;16.42;;;9.38;;
66546;SDS011;53400;50.364;14.874;2024-02-26T10:55:40;16.00;;;9.13;;
66546;SDS011;53400;50.364;14.874;2024-02-26T10:58:07;15.40;;;9.02;;
66546;SDS011;53400;50.364;14.874;2024-02-26T11:00:36;16.30;;;9.10;;
66546;SDS011;53400;50.364;14.874;2024-02-26T11:03:04;13.75;;;7.95;;
66546;SDS011;53400;50.364;14.874;2024-02-26T11:05:33;13.25;;;7.63;;
66546;SDS011;53400;50.364;14.874;2024-02-26T11:08:00;14.05;;;7.70;;
66546;SDS011;53400;50.364;14.874;2024-02-26T11:10:29;13.90;;;8.15;;
66546;SDS011;53400;50.364;14.874;2024-02-26T11:12:55;16.33;;;8.57;;
66546;SDS011;53400;50.364;14.874;2024-02-26T11:15:22;14.90;;;8.70;;
66546;SDS011;53400;50.364;14.874;2024-02-26T11:17:48;14.02;;;8.02;;
66546;SDS011;53400;50.364;14.874;2024-02-26T11:20:15;12.60;;;7.57;;
66546;SDS011;53400;50.364;14.874;2024-02-26T11:22:41;14.27;;;8.20;;
66546;SDS011;53400;50.364;14.874;2024-02-26T11:25:08;13.57;;;8.13;;
66546;SDS011;53400;50.364;14.874;2024-02-26T11:27:37;13.73;;;7.95;;
66546;SDS011;53400;50.364;14.874;2024-02-26T11:30:05;12.80;;;7.80;;
66546;SDS011;53400;50.364;14.874;2024-02-26T11:32:35;13.85;;;8.00;;
66546;SDS011;53400;50.364;14.874;2024-02-26T11:35:03;12.48;;;7.32;;
66546;SDS011;53400;50.364;14.874;2024-02-26T11:37:30;12.00;;;6.85;;
66546;SDS011;53400;50.364;14.874;2024-02-26T11:39:58;11.98;;;7.00;;
66546;SDS011;53400;50.364;14.874;2024-02-26T11:42:26;10.45;;;6.53;;
66546;SDS011;53400;50.364;14.874;2024-02-26T11:44:53;11.10;;;6.47;;
66546;SDS011;53400;50.364;14.874;2024-02-26T11:47:21;13.85;;;6.47;;
66546;SDS011;53400;50.364;14.874;2024-02-26T11:49:48;10.85;;;6.53;;
66546;SDS011;53400;50.364;14.874;2024-02-26T11:52:14;11.35;;;6.72;;
66546;SDS011;53400;50.364;14.874;2024-02-26T11:54:44;12.18;;;7.00;;
66546;SDS011;53400;50.364;14.874;2024-02-26T11:57:20;12.15;;;7.45;;
66546;SDS011;53400;50.364;14.874;2024-02-26T11:59:47;12.32;;;7.10;;
66546;SDS011;53400;50.364;14.874;2024-02-26T12:02:25;13.13;;;7.93;;
66546;SDS011;53400;50.364;14.874;2024-02-26T12:05:05;11.63;;;7.18;;
66546;SDS011;53400;50.364;14.874;2024-02-26T12:10:13;11.80;;;7.10;;
66546;SDS011;53400;50.364;14.874;2024-02-26T12:12:41;12.38;;;7.68;;
66546;SDS011;53400;50.364;14.874;2024-02-26T12:15:07;13.95;;;7.85;;
66546;SDS011;53400;50.364;14.874;2024-02-26T12:17:37;12.85;;;7.55;;
66546;SDS011;53400;50.364;14.874;2024-02-26T12:20:09;14.15;;;8.45;;
66546;SDS011;53400;50.364;14.874;2024-02-26T12:22:36;12.07;;;7.82;;
66546;SDS011;53400;50.364;14.874;2024-02-26T12:25:05;13.55;;;7.95;;
66546;SDS011;53400;50.364;14.874;2024-02-26T12:27:31;13.25;;;7.82;;
66546;SDS011;53400;50.364;14.874;2024-02-26T12:29:57;13.25;;;7.88;;
66546;SDS011;53400;50.364;14.874;2024-02-26T12:32:23;12.60;;;7.75;;
66546;SDS011;53400;50.364;14.874;2024-02-26T12:34:51;12.80;;;7.78;;
66546;SDS011;53400;50.364;14.874;2024-02-26T12:37:17;13.85;;;8.43;;
66546;SDS011;53400;50.364;14.874;2024-02-26T12:39:43;14.10;;;8.65;;
66546;SDS011;53400;50.364;14.874;2024-02-26T12:42:11;13.05;;;8.20;;
66546;SDS011;53400;50.364;14.874;2024-02-26T12:44:37;15.02;;;8.45;;
66546;SDS011;53400;50.364;14.874;2024-02-26T12:47:03;13.73;;;8.15;;
66546;SDS011;53400;50.364;14.874;2024-02-26T12:49:30;19.23;;;10.55;;
66546;SDS011;53400;50.364;14.874;2024-02-26T12:51:57;20.65;;;13.50;;
66546;SDS011;53400;50.364;14.874;2024-02-26T12:54:27;21.27;;;12.73;;
66546;SDS011;53400;50.364;14.874;2024-02-26T12:56:53;21.25;;;13.10;;
66546;SDS011;53400;50.364;14.874;2024-02-26T12:59:19;24.27;;;15.10;;
66546;SDS011;53400;50.364;14.874;2024-02-26T13:01:46;22.38;;;13.07;;
66546;SDS011;53400;50.364;14.874;2024-02-26T13:04:12;21.65;;;12.85;;
66546;SDS011;53400;50.364;14.874;2024-02-26T13:06:38;21.95;;;12.60;;
66546;SDS011;53400;50.364;14.874;2024-02-26T13:09:05;22.55;;;12.63;;
66546;SDS011;53400;50.364;14.874;2024-02-26T13:11:31;21.65;;;13.20;;
66546;SDS011;53400;50.364;14.874;2024-02-26T13:13:58;21.75;;;13.32;;
66546;SDS011;53400;50.364;14.874;2024-02-26T13:16:24;25.00;;;14.98;;
66546;SDS011;53400;50.364;14.874;2024-02-26T13:18:50;21.00;;;14.05;;
66546;SDS011;53400;50.364;14.874;2024-02-26T13:21:17;25.35;;;15.32;;
66546;SDS011;53400;50.364;14.874;2024-02-26T13:23:47;24.17;;;14.32;;
66546;SDS011;53400;50.364;14.874;2024-02-26T13:26:17;24.67;;;14.73;;
66546;SDS011;53400;50.364;14.874;2024-02-26T13:28:47;23.25;;;14.57;;
66546;SDS011;53400;50.364;14.874;2024-02-26T13:31:13;23.33;;;15.57;;
66546;SDS011;53400;50.364;14.874;2024-02-26T13:33:39;23.55;;;14.10;;
66546;SDS011;53400;50.364;14.874;2024-02-26T13:36:05;24.35;;;15.18;;
66546;SDS011;53400;50.364;14.874;2024-02-26T13:38:31;22.80;;;14.15;;
66546;SDS011;53400;50.364;14.874;2024-02-26T13:40:57;24.63;;;14.30;;
66546;SDS011;53400;50.364;14.874;2024-02-26T13:43:25;24.08;;;14.20;;
66546;SDS011;53400;50.364;14.874;2024-02-26T13:45:51;24.27;;;14.48;;
66546;SDS011;53400;50.364;14.874;2024-02-26T13:48:17;22.92;;;14.75;;
66546;SDS011;53400;50.364;14.874;2024-02-26T13:50:43;22.48;;;13.93;;
66546;SDS011;53400;50.364;14.874;2024-02-26T13:53:10;22.63;;;13.35;;
66546;SDS011;53400;50.364;14.874;2024-02-26T13:55:37;21.77;;;13.52;;
66546;SDS011;53400;50.364;14.874;2024-02-26T13:58:04;23.80;;;15.07;;
66546;SDS011;53400;50.364;14.874;2024-02-26T14:00:33;24.20;;;15.30;;
66546;SDS011;53400;50.364;14.874;2024-02-26T14:03:00;24.25;;;15.13;;
66546;SDS011;53400;50.364;14.874;2024-02-26T14:05:26;26.73;;;15.95;;
66546;SDS011;53400;50.364;14.874;2024-02-26T14:07:53;26.23;;;14.82;;
66546;SDS011;53400;50.364;14.874;2024-02-26T14:10:20;26.83;;;16.27;;
66546;SDS011;53400;50.364;14.874;2024-02-26T14:12:46;28.95;;;16.58;;
66546;SDS011;53400;50.364;14.874;2024-02-26T14:15:12;23.30;;;14.82;;